sensor_id;sensor_type;location;lat;lon;timestamp;P1;durP1;ratioP1;P2;durP2;ratioP2
8232;SDS011;4157;48.074;9.952;2024-03-08T00:01:53;27.45;;;22.75;;
8232;SDS011;4157;48.074;9.952;2024-03-08T00:04:22;27.92;;;23.02;;
8232;SDS011;4157;48.074;9.952;2024-03-08T00:06:50;26.17;;;13.52;;
8232;SDS011;4157;48.074;9.952;2024-03-08T00:09:17;27.90;;;22.92;;
8232;SDS011;4157;48.074;9.952;2024-03-08T00:11:47;30.35;;;14.30;;
8232;SDS011;4157;48.074;9.952;2024-03-08T00:14:16;29.73;;;24.50;;
8232;SDS011;4157;48.074;9.952;2024-03-08T00:16:43;28.77;;;24.30;;
8232;SDS011;4157;48.074;9.952;2024-03-08T00:19:11;26.38;;;22.33;;
8232;SDS011;4157;48.074;9.952;2024-03-08T00:21:40;26.13;;;21.55;;
8232;SDS011;4157;48.074;9.952;2024-03-08T00:24:08;26.13;;;14.95;;
8232;SDS011;4157;48.074;9.952;2024-03-08T00:26:35;28.48;;;23.92;;
8232;SDS011;4157;48.074;9.952;2024-03-08T00:29:03;26.15;;;22.05;;
8232;SDS011;4157;48.074;9.952;2024-03-08T00:31:33;27.60;;;22.58;;
8232;SDS011;4157;48.074;9.952;2024-03-08T00:34:01;29.23;;;24.00;;
8232;SDS011;4157;48.074;9.952;2024-03-08T00:36:29;30.17;;;25.30;;
8232;SDS011;4157;48.074;9.952;2024-03-08T00:38:58;30.42;;;24.30;;
8232;SDS011;4157;48.074;9.952;2024-03-08T00:41:26;31.27;;;25.67;;
8232;SDS011;4157;48.074;9.952;2024-03-08T00:43:54;26.85;;;22.63;;
8232;SDS011;4157;48.074;9.952;2024-03-08T00:46:21;32.28;;;15.45;;
8232;SDS011;4157;48.074;9.952;2024-03-08T00:48:49;24.17;;;13.23;;
8232;SDS011;4157;48.074;9.952;2024-03-08T00:51:17;29.40;;;24.95;;
8232;SDS011;4157;48.074;9.952;2024-03-08T00:53:44;29.95;;;24.17;;
8232;SDS011;4157;48.074;9.952;2024-03-08T00:56:13;30.45;;;24.73;;
8232;SDS011;4157;48.074;9.952;2024-03-08T00:58:41;31.90;;;24.58;;
8232;SDS011;4157;48.074;9.952;2024-03-08T01:01:09;28.02;;;23.67;;
8232;SDS011;4157;48.074;9.952;2024-03-08T01:03:36;29.02;;;13.50;;
8232;SDS011;4157;48.074;9.952;2024-03-08T01:06:04;29.58;;;23.63;;
8232;SDS011;4157;48.074;9.952;2024-03-08T01:08:32;26.15;;;13.70;;
8232;SDS011;4157;48.074;9.952;2024-03-08T01:10:59;26.52;;;14.23;;
8232;SDS011;4157;48.074;9.952;2024-03-08T01:13:28;33.40;;;25.40;;
8232;SDS011;4157;48.074;9.952;2024-03-08T01:15:56;28.70;;;15.93;;
8232;SDS011;4157;48.074;9.952;2024-03-08T01:18:24;31.05;;;24.80;;
8232;SDS011;4157;48.074;9.952;2024-03-08T01:20:51;31.00;;;25.65;;
8232;SDS011;4157;48.074;9.952;2024-03-08T01:23:19;31.20;;;25.80;;
8232;SDS011;4157;48.074;9.952;2024-03-08T01:25:47;31.50;;;25.10;;
8232;SDS011;4157;48.074;9.952;2024-03-08T01:28:17;31.05;;;24.92;;
8232;SDS011;4157;48.074;9.952;2024-03-08T01:30:47;28.15;;;14.80;;
8232;SDS011;4157;48.074;9.952;2024-03-08T01:33:15;31.63;;;16.25;;
8232;SDS011;4157;48.074;9.952;2024-03-08T01:35:43;30.77;;;26.02;;
8232;SDS011;4157;48.074;9.952;2024-03-08T01:38:11;29.00;;;14.63;;
8232;SDS011;4157;48.074;9.952;2024-03-08T01:40:38;32.65;;;27.10;;
8232;SDS011;4157;48.074;9.952;2024-03-08T01:43:18;31.80;;;26.00;;
8232;SDS011;4157;48.074;9.952;2024-03-08T01:45:47;33.47;;;27.23;;
8232;SDS011;4157;48.074;9.952;2024-03-08T01:48:15;30.50;;;25.20;;
8232;SDS011;4157;48.074;9.952;2024-03-08T01:50:44;33.90;;;26.35;;
8232;SDS011;4157;48.074;9.952;2024-03-08T01:53:12;33.38;;;28.15;;
8232;SDS011;4157;48.074;9.952;2024-03-08T01:55:41;34.25;;;16.02;;
8232;SDS011;4157;48.074;9.952;2024-03-08T01:58:09;34.15;;;15.35;;
8232;SDS011;4157;48.074;9.952;2024-03-08T02:00:37;30.85;;;25.90;;
8232;SDS011;4157;48.074;9.952;2024-03-08T02:03:08;31.83;;;25.75;;
8232;SDS011;4157;48.074;9.952;2024-03-08T02:05:37;33.65;;;26.85;;
8232;SDS011;4157;48.074;9.952;2024-03-08T02:08:06;27.80;;;15.82;;
8232;SDS011;4157;48.074;9.952;2024-03-08T02:10:38;30.90;;;26.33;;
8232;SDS011;4157;48.074;9.952;2024-03-08T02:13:06;27.00;;;14.40;;
8232;SDS011;4157;48.074;9.952;2024-03-08T02:15:49;34.17;;;16.40;;
8232;SDS011;4157;48.074;9.952;2024-03-08T02:18:18;31.30;;;25.15;;
8232;SDS011;4157;48.074;9.952;2024-03-08T02:20:47;30.58;;;15.05;;
8232;SDS011;4157;48.074;9.952;2024-03-08T02:23:15;34.10;;;16.30;;
8232;SDS011;4157;48.074;9.952;2024-03-08T02:25:43;35.03;;;28.08;;
8232;SDS011;4157;48.074;9.952;2024-03-08T02:28:11;30.30;;;26.13;;
8232;SDS011;4157;48.074;9.952;2024-03-08T02:30:38;32.72;;;16.20;;
8232;SDS011;4157;48.074;9.952;2024-03-08T02:33:06;34.03;;;27.77;;
8232;SDS011;4157;48.074;9.952;2024-03-08T02:35:35;34.08;;;26.55;;
8232;SDS011;4157;48.074;9.952;2024-03-08T02:38:04;31.73;;;15.18;;
8232;SDS011;4157;48.074;9.952;2024-03-08T02:40:32;32.08;;;16.30;;
8232;SDS011;4157;48.074;9.952;2024-03-08T02:42:59;34.75;;;27.98;;
8232;SDS011;4157;48.074;9.952;2024-03-08T02:45:27;32.58;;;27.10;;
8232;SDS011;4157;48.074;9.952;2024-03-08T02:47:55;33.08;;;27.80;;
8232;SDS011;4157;48.074;9.952;2024-03-08T02:50:23;32.55;;;15.80;;
8232;SDS011;4157;48.074;9.952;2024-03-08T02:52:51;35.83;;;28.95;;
8232;SDS011;4157;48.074;9.952;2024-03-08T02:55:20;38.55;;;16.83;;
8232;SDS011;4157;48.074;9.952;2024-03-08T02:57:47;32.92;;;16.63;;
8232;SDS011;4157;48.074;9.952;2024-03-08T03:00:15;33.25;;;27.40;;
8232;SDS011;4157;48.074;9.952;2024-03-08T03:02:44;31.10;;;25.55;;
8232;SDS011;4157;48.074;9.952;2024-03-08T03:05:12;33.97;;;16.10;;
8232;SDS011;4157;48.074;9.952;2024-03-08T03:07:40;36.08;;;29.38;;
8232;SDS011;4157;48.074;9.952;2024-03-08T03:10:08;31.70;;;16.92;;
8232;SDS011;4157;48.074;9.952;2024-03-08T03:12:37;34.20;;;27.27;;
8232;SDS011;4157;48.074;9.952;2024-03-08T03:15:05;31.08;;;15.45;;
8232;SDS011;4157;48.074;9.952;2024-03-08T03:17:33;34.03;;;27.63;;
8232;SDS011;4157;48.074;9.952;2024-03-08T03:20:01;33.15;;;26.98;;
8232;SDS011;4157;48.074;9.952;2024-03-08T03:22:34;34.93;;;16.17;;
8232;SDS011;4157;48.074;9.952;2024-03-08T03:25:02;31.95;;;26.80;;
8232;SDS011;4157;48.074;9.952;2024-03-08T03:27:32;35.33;;;29.10;;
8232;SDS011;4157;48.074;9.952;2024-03-08T03:30:01;33.15;;;26.88;;
8232;SDS011;4157;48.074;9.952;2024-03-08T03:32:47;36.28;;;29.63;;
8232;SDS011;4157;48.074;9.952;2024-03-08T03:35:16;33.53;;;16.85;;
8232;SDS011;4157;48.074;9.952;2024-03-08T03:37:46;36.60;;;30.17;;
8232;SDS011;4157;48.074;9.952;2024-03-08T03:40:27;35.65;;;29.00;;
8232;SDS011;4157;48.074;9.952;2024-03-08T03:42:54;37.67;;;30.77;;
8232;SDS011;4157;48.074;9.952;2024-03-08T03:45:24;33.83;;;17.55;;
8232;SDS011;4157;48.074;9.952;2024-03-08T03:47:52;34.75;;;28.73;;
8232;SDS011;4157;48.074;9.952;2024-03-08T03:50:19;35.50;;;28.95;;
8232;SDS011;4157;48.074;9.952;2024-03-08T03:52:47;30.98;;;16.67;;
8232;SDS011;4157;48.074;9.952;2024-03-08T03:55:15;36.25;;;29.85;;
8232;SDS011;4157;48.074;9.952;2024-03-08T03:57:43;36.70;;;28.40;;
8232;SDS011;4157;48.074;9.952;2024-03-08T04:00:11;34.53;;;27.70;;
8232;SDS011;4157;48.074;9.952;2024-03-08T04:02:42;32.03;;;24.85;;
8232;SDS011;4157;48.074;9.952;2024-03-08T04:05:10;38.67;;;27.23;;
8232;SDS011;4157;48.074;9.952;2024-03-08T04:07:38;34.50;;;26.85;;
8232;SDS011;4157;48.074;9.952;2024-03-08T04:10:07;35.13;;;15.57;;
8232;SDS011;4157;48.074;9.952;2024-03-08T04:12:37;36.00;;;28.60;;
8232;SDS011;4157;48.074;9.952;2024-03-08T04:15:05;35.65;;;28.20;;
8232;SDS011;4157;48.074;9.952;2024-03-08T04:17:33;34.60;;;27.40;;
8232;SDS011;4157;48.074;9.952;2024-03-08T04:20:04;33.65;;;16.05;;
8232;SDS011;4157;48.074;9.952;2024-03-08T04:22:35;32.65;;;16.00;;
8232;SDS011;4157;48.074;9.952;2024-03-08T04:25:03;36.47;;;28.77;;
8232;SDS011;4157;48.074;9.952;2024-03-08T04:27:31;32.25;;;16.90;;
8232;SDS011;4157;48.074;9.952;2024-03-08T04:29:59;35.55;;;28.58;;
8232;SDS011;4157;48.074;9.952;2024-03-08T04:32:27;38.78;;;31.15;;
8232;SDS011;4157;48.074;9.952;2024-03-08T04:34:55;34.97;;;28.17;;
8232;SDS011;4157;48.074;9.952;2024-03-08T04:37:24;34.47;;;17.65;;
8232;SDS011;4157;48.074;9.952;2024-03-08T04:39:52;39.53;;;31.13;;
8232;SDS011;4157;48.074;9.952;2024-03-08T04:42:19;37.05;;;28.33;;
8232;SDS011;4157;48.074;9.952;2024-03-08T04:44:47;37.35;;;30.27;;
8232;SDS011;4157;48.074;9.952;2024-03-08T04:47:15;33.25;;;17.13;;
8232;SDS011;4157;48.074;9.952;2024-03-08T04:49:43;37.63;;;29.40;;
8232;SDS011;4157;48.074;9.952;2024-03-08T04:52:11;37.47;;;30.02;;
8232;SDS011;4157;48.074;9.952;2024-03-08T04:54:40;42.38;;;31.83;;
8232;SDS011;4157;48.074;9.952;2024-03-08T04:57:07;33.20;;;17.20;;
8232;SDS011;4157;48.074;9.952;2024-03-08T04:59:35;39.78;;;31.77;;
8232;SDS011;4157;48.074;9.952;2024-03-08T05:02:03;40.28;;;32.05;;
8232;SDS011;4157;48.074;9.952;2024-03-08T05:04:32;35.92;;;30.05;;
8232;SDS011;4157;48.074;9.952;2024-03-08T05:07:00;36.47;;;18.98;;
8232;SDS011;4157;48.074;9.952;2024-03-08T05:09:29;37.60;;;17.80;;
8232;SDS011;4157;48.074;9.952;2024-03-08T05:11:59;38.97;;;30.83;;
8232;SDS011;4157;48.074;9.952;2024-03-08T05:14:27;38.47;;;30.77;;
8232;SDS011;4157;48.074;9.952;2024-03-08T05:16:55;33.33;;;17.15;;
8232;SDS011;4157;48.074;9.952;2024-03-08T05:19:22;37.15;;;29.65;;
8232;SDS011;4157;48.074;9.952;2024-03-08T05:21:50;37.42;;;29.33;;
8232;SDS011;4157;48.074;9.952;2024-03-08T05:24:18;40.10;;;31.60;;
8232;SDS011;4157;48.074;9.952;2024-03-08T05:26:46;39.75;;;18.48;;
8232;SDS011;4157;48.074;9.952;2024-03-08T05:29:15;42.17;;;33.75;;
8232;SDS011;4157;48.074;9.952;2024-03-08T05:31:45;38.85;;;18.35;;
8232;SDS011;4157;48.074;9.952;2024-03-08T05:34:13;39.72;;;32.65;;
8232;SDS011;4157;48.074;9.952;2024-03-08T05:36:41;33.65;;;16.75;;
8232;SDS011;4157;48.074;9.952;2024-03-08T05:39:10;36.72;;;29.60;;
8232;SDS011;4157;48.074;9.952;2024-03-08T05:41:37;38.53;;;30.50;;
8232;SDS011;4157;48.074;9.952;2024-03-08T05:44:06;35.03;;;17.10;;
8232;SDS011;4157;48.074;9.952;2024-03-08T05:46:35;32.45;;;16.48;;
8232;SDS011;4157;48.074;9.952;2024-03-08T05:49:03;39.03;;;31.80;;
8232;SDS011;4157;48.074;9.952;2024-03-08T05:51:31;37.85;;;30.48;;
8232;SDS011;4157;48.074;9.952;2024-03-08T05:54:00;38.20;;;30.40;;
8232;SDS011;4157;48.074;9.952;2024-03-08T05:56:28;37.92;;;29.58;;
8232;SDS011;4157;48.074;9.952;2024-03-08T05:58:56;37.72;;;17.17;;
8232;SDS011;4157;48.074;9.952;2024-03-08T06:01:24;38.22;;;29.80;;
8232;SDS011;4157;48.074;9.952;2024-03-08T06:03:53;34.28;;;17.05;;
8232;SDS011;4157;48.074;9.952;2024-03-08T06:06:21;30.98;;;17.30;;
8232;SDS011;4157;48.074;9.952;2024-03-08T06:08:49;39.28;;;31.50;;
8232;SDS011;4157;48.074;9.952;2024-03-08T06:11:17;42.40;;;32.20;;
8232;SDS011;4157;48.074;9.952;2024-03-08T06:13:45;39.20;;;31.05;;
8232;SDS011;4157;48.074;9.952;2024-03-08T06:16:13;44.08;;;32.70;;
8232;SDS011;4157;48.074;9.952;2024-03-08T06:18:40;32.05;;;15.88;;
8232;SDS011;4157;48.074;9.952;2024-03-08T06:21:09;30.80;;;16.08;;
8232;SDS011;4157;48.074;9.952;2024-03-08T06:23:38;38.17;;;30.80;;
8232;SDS011;4157;48.074;9.952;2024-03-08T06:26:06;36.03;;;29.08;;
8232;SDS011;4157;48.074;9.952;2024-03-08T06:28:33;38.40;;;19.08;;
8232;SDS011;4157;48.074;9.952;2024-03-08T06:31:01;35.38;;;16.23;;
8232;SDS011;4157;48.074;9.952;2024-03-08T06:33:29;38.53;;;29.10;;
8232;SDS011;4157;48.074;9.952;2024-03-08T06:35:58;33.42;;;27.35;;
8232;SDS011;4157;48.074;9.952;2024-03-08T06:38:27;35.65;;;28.85;;
8232;SDS011;4157;48.074;9.952;2024-03-08T06:40:56;36.05;;;16.90;;
8232;SDS011;4157;48.074;9.952;2024-03-08T06:43:24;33.08;;;26.90;;
8232;SDS011;4157;48.074;9.952;2024-03-08T06:48:25;35.85;;;27.77;;
8232;SDS011;4157;48.074;9.952;2024-03-08T06:50:55;36.63;;;16.55;;
8232;SDS011;4157;48.074;9.952;2024-03-08T06:53:23;35.72;;;28.67;;
8232;SDS011;4157;48.074;9.952;2024-03-08T06:55:51;31.98;;;25.85;;
8232;SDS011;4157;48.074;9.952;2024-03-08T06:58:20;34.78;;;27.27;;
8232;SDS011;4157;48.074;9.952;2024-03-08T07:00:47;32.00;;;15.88;;
8232;SDS011;4157;48.074;9.952;2024-03-08T07:03:17;35.55;;;27.88;;
8232;SDS011;4157;48.074;9.952;2024-03-08T07:05:45;38.03;;;29.67;;
8232;SDS011;4157;48.074;9.952;2024-03-08T07:08:13;35.97;;;28.88;;
8232;SDS011;4157;48.074;9.952;2024-03-08T07:10:42;33.55;;;26.50;;
8232;SDS011;4157;48.074;9.952;2024-03-08T07:13:12;36.53;;;17.98;;
8232;SDS011;4157;48.074;9.952;2024-03-08T07:15:39;34.47;;;15.80;;
8232;SDS011;4157;48.074;9.952;2024-03-08T07:18:07;37.95;;;28.65;;
8232;SDS011;4157;48.074;9.952;2024-03-08T07:20:40;31.60;;;15.68;;
8232;SDS011;4157;48.074;9.952;2024-03-08T07:23:09;39.42;;;29.58;;
8232;SDS011;4157;48.074;9.952;2024-03-08T07:25:57;39.90;;;31.48;;
8232;SDS011;4157;48.074;9.952;2024-03-08T07:28:28;39.63;;;18.52;;
8232;SDS011;4157;48.074;9.952;2024-03-08T07:30:56;40.03;;;18.70;;
8232;SDS011;4157;48.074;9.952;2024-03-08T07:33:38;35.47;;;26.23;;
8232;SDS011;4157;48.074;9.952;2024-03-08T07:36:05;30.98;;;14.43;;
8232;SDS011;4157;48.074;9.952;2024-03-08T07:38:34;36.13;;;18.40;;
8232;SDS011;4157;48.074;9.952;2024-03-08T07:41:01;37.28;;;28.17;;
8232;SDS011;4157;48.074;9.952;2024-03-08T07:43:30;38.60;;;27.15;;
8232;SDS011;4157;48.074;9.952;2024-03-08T07:45:58;42.03;;;27.63;;
8232;SDS011;4157;48.074;9.952;2024-03-08T07:48:26;37.45;;;25.80;;
8232;SDS011;4157;48.074;9.952;2024-03-08T07:50:53;33.75;;;26.02;;
8232;SDS011;4157;48.074;9.952;2024-03-08T07:53:21;32.95;;;26.17;;
8232;SDS011;4157;48.074;9.952;2024-03-08T07:55:50;26.25;;;13.52;;
8232;SDS011;4157;48.074;9.952;2024-03-08T07:58:18;33.17;;;26.25;;
8232;SDS011;4157;48.074;9.952;2024-03-08T08:00:47;33.42;;;26.30;;
8232;SDS011;4157;48.074;9.952;2024-03-08T08:03:15;33.20;;;26.25;;
8232;SDS011;4157;48.074;9.952;2024-03-08T08:05:46;35.05;;;17.60;;
8232;SDS011;4157;48.074;9.952;2024-03-08T08:08:14;29.65;;;13.65;;
8232;SDS011;4157;48.074;9.952;2024-03-08T08:10:42;30.92;;;24.45;;
8232;SDS011;4157;48.074;9.952;2024-03-08T08:13:10;31.77;;;24.48;;
8232;SDS011;4157;48.074;9.952;2024-03-08T08:15:38;31.77;;;14.50;;
8232;SDS011;4157;48.074;9.952;2024-03-08T08:18:07;30.05;;;14.32;;
8232;SDS011;4157;48.074;9.952;2024-03-08T08:20:35;33.42;;;25.38;;
8232;SDS011;4157;48.074;9.952;2024-03-08T08:23:03;27.90;;;14.40;;
8232;SDS011;4157;48.074;9.952;2024-03-08T08:25:31;30.30;;;14.60;;
8232;SDS011;4157;48.074;9.952;2024-03-08T08:28:00;34.58;;;26.40;;
8232;SDS011;4157;48.074;9.952;2024-03-08T08:30:29;29.15;;;24.35;;
8232;SDS011;4157;48.074;9.952;2024-03-08T08:32:58;31.70;;;24.55;;
8232;SDS011;4157;48.074;9.952;2024-03-08T08:35:28;28.75;;;22.83;;
8232;SDS011;4157;48.074;9.952;2024-03-08T08:37:55;28.00;;;22.23;;
8232;SDS011;4157;48.074;9.952;2024-03-08T08:40:24;28.98;;;22.77;;
8232;SDS011;4157;48.074;9.952;2024-03-08T08:42:52;28.52;;;14.60;;
8232;SDS011;4157;48.074;9.952;2024-03-08T08:45:19;29.48;;;23.40;;
8232;SDS011;4157;48.074;9.952;2024-03-08T08:47:47;29.77;;;23.38;;
8232;SDS011;4157;48.074;9.952;2024-03-08T08:50:15;26.30;;;13.82;;
8232;SDS011;4157;48.074;9.952;2024-03-08T08:52:49;27.30;;;14.48;;
8232;SDS011;4157;48.074;9.952;2024-03-08T08:55:17;32.55;;;25.95;;
8232;SDS011;4157;48.074;9.952;2024-03-08T08:57:46;35.53;;;25.98;;
8232;SDS011;4157;48.074;9.952;2024-03-08T09:00:14;37.65;;;27.60;;
8232;SDS011;4157;48.074;9.952;2024-03-08T09:02:42;34.33;;;15.02;;
8232;SDS011;4157;48.074;9.952;2024-03-08T09:05:10;35.65;;;26.20;;
8232;SDS011;4157;48.074;9.952;2024-03-08T09:07:37;29.45;;;23.55;;
8232;SDS011;4157;48.074;9.952;2024-03-08T09:10:07;29.88;;;23.67;;
8232;SDS011;4157;48.074;9.952;2024-03-08T09:12:35;31.08;;;23.73;;
8232;SDS011;4157;48.074;9.952;2024-03-08T09:15:03;30.73;;;23.90;;
8232;SDS011;4157;48.074;9.952;2024-03-08T09:17:31;30.73;;;14.93;;
8232;SDS011;4157;48.074;9.952;2024-03-08T09:19:58;37.45;;;31.80;;
8232;SDS011;4157;48.074;9.952;2024-03-08T09:22:28;31.80;;;23.83;;
8232;SDS011;4157;48.074;9.952;2024-03-08T09:24:56;32.47;;;23.63;;
8232;SDS011;4157;48.074;9.952;2024-03-08T09:27:25;26.75;;;21.80;;
8232;SDS011;4157;48.074;9.952;2024-03-08T09:29:53;29.50;;;22.95;;
8232;SDS011;4157;48.074;9.952;2024-03-08T09:32:21;31.08;;;22.98;;
8232;SDS011;4157;48.074;9.952;2024-03-08T09:34:49;29.50;;;13.65;;
8232;SDS011;4157;48.074;9.952;2024-03-08T09:37:17;31.77;;;24.58;;
8232;SDS011;4157;48.074;9.952;2024-03-08T09:39:44;27.52;;;21.08;;
8232;SDS011;4157;48.074;9.952;2024-03-08T09:42:12;28.90;;;14.68;;
8232;SDS011;4157;48.074;9.952;2024-03-08T09:44:44;28.88;;;23.08;;
8232;SDS011;4157;48.074;9.952;2024-03-08T09:47:13;29.30;;;22.27;;
8232;SDS011;4157;48.074;9.952;2024-03-08T09:49:41;31.73;;;25.00;;
8232;SDS011;4157;48.074;9.952;2024-03-08T09:52:08;31.60;;;24.42;;
8232;SDS011;4157;48.074;9.952;2024-03-08T09:54:38;30.33;;;22.67;;
8232;SDS011;4157;48.074;9.952;2024-03-08T09:57:06;33.28;;;25.60;;
8232;SDS011;4157;48.074;9.952;2024-03-08T09:59:34;29.70;;;24.13;;
8232;SDS011;4157;48.074;9.952;2024-03-08T10:02:14;32.45;;;25.42;;
8232;SDS011;4157;48.074;9.952;2024-03-08T10:04:42;34.05;;;25.73;;
8232;SDS011;4157;48.074;9.952;2024-03-08T10:07:12;32.38;;;25.65;;
8232;SDS011;4157;48.074;9.952;2024-03-08T10:09:40;33.67;;;25.67;;
8232;SDS011;4157;48.074;9.952;2024-03-08T10:12:12;33.22;;;23.67;;
8232;SDS011;4157;48.074;9.952;2024-03-08T10:14:40;32.28;;;25.98;;
8232;SDS011;4157;48.074;9.952;2024-03-08T10:17:08;32.90;;;25.20;;
8232;SDS011;4157;48.074;9.952;2024-03-08T10:19:38;30.17;;;22.50;;
8232;SDS011;4157;48.074;9.952;2024-03-08T10:22:07;27.70;;;22.08;;
8232;SDS011;4157;48.074;9.952;2024-03-08T10:27:09;31.83;;;23.15;;
8232;SDS011;4157;48.074;9.952;2024-03-08T10:29:36;29.60;;;24.02;;
8232;SDS011;4157;48.074;9.952;2024-03-08T10:32:09;27.52;;;13.98;;
8232;SDS011;4157;48.074;9.952;2024-03-08T10:34:40;30.27;;;22.85;;
8232;SDS011;4157;48.074;9.952;2024-03-08T10:37:07;31.10;;;23.80;;
8232;SDS011;4157;48.074;9.952;2024-03-08T10:39:38;32.17;;;15.20;;
8232;SDS011;4157;48.074;9.952;2024-03-08T10:42:10;30.67;;;23.08;;
8232;SDS011;4157;48.074;9.952;2024-03-08T10:44:45;30.05;;;23.42;;
8232;SDS011;4157;48.074;9.952;2024-03-08T10:47:18;30.83;;;22.85;;
8232;SDS011;4157;48.074;9.952;2024-03-08T10:49:53;27.85;;;21.70;;
8232;SDS011;4157;48.074;9.952;2024-03-08T10:52:21;28.05;;;22.52;;
8232;SDS011;4157;48.074;9.952;2024-03-08T10:54:49;27.73;;;22.70;;
8232;SDS011;4157;48.074;9.952;2024-03-08T10:57:18;26.95;;;21.02;;
8232;SDS011;4157;48.074;9.952;2024-03-08T10:59:47;26.67;;;20.00;;
8232;SDS011;4157;48.074;9.952;2024-03-08T11:02:15;26.70;;;21.67;;
8232;SDS011;4157;48.074;9.952;2024-03-08T11:04:47;26.40;;;21.42;;
8232;SDS011;4157;48.074;9.952;2024-03-08T11:07:16;28.92;;;21.00;;
8232;SDS011;4157;48.074;9.952;2024-03-08T11:09:47;28.58;;;22.35;;
8232;SDS011;4157;48.074;9.952;2024-03-08T11:12:21;27.15;;;21.88;;
8232;SDS011;4157;48.074;9.952;2024-03-08T11:14:51;28.80;;;22.83;;
8232;SDS011;4157;48.074;9.952;2024-03-08T11:20:09;26.80;;;21.27;;
8232;SDS011;4157;48.074;9.952;2024-03-08T11:22:42;27.45;;;22.13;;
8232;SDS011;4157;48.074;9.952;2024-03-08T11:25:31;33.13;;;24.05;;
8232;SDS011;4157;48.074;9.952;2024-03-08T11:28:09;30.48;;;23.48;;
8232;SDS011;4157;48.074;9.952;2024-03-08T11:30:42;29.38;;;22.65;;
8232;SDS011;4157;48.074;9.952;2024-03-08T11:33:13;32.15;;;24.02;;
8232;SDS011;4157;48.074;9.952;2024-03-08T11:35:42;28.50;;;21.67;;
8232;SDS011;4157;48.074;9.952;2024-03-08T11:38:12;27.48;;;22.48;;
8232;SDS011;4157;48.074;9.952;2024-03-08T11:40:42;28.00;;;21.77;;
8232;SDS011;4157;48.074;9.952;2024-03-08T11:43:09;27.67;;;21.20;;
8232;SDS011;4157;48.074;9.952;2024-03-08T11:45:37;28.10;;;22.48;;
8232;SDS011;4157;48.074;9.952;2024-03-08T11:48:06;26.23;;;22.00;;
8232;SDS011;4157;48.074;9.952;2024-03-08T11:50:34;26.88;;;21.65;;
8232;SDS011;4157;48.074;9.952;2024-03-08T11:53:03;30.08;;;23.17;;
8232;SDS011;4157;48.074;9.952;2024-03-08T11:55:32;29.42;;;23.20;;
8232;SDS011;4157;48.074;9.952;2024-03-08T11:58:02;27.00;;;21.42;;
8232;SDS011;4157;48.074;9.952;2024-03-08T12:00:30;28.75;;;22.42;;
8232;SDS011;4157;48.074;9.952;2024-03-08T12:03:04;27.70;;;20.47;;
8232;SDS011;4157;48.074;9.952;2024-03-08T12:05:32;29.58;;;21.73;;
8232;SDS011;4157;48.074;9.952;2024-03-08T12:08:00;25.35;;;20.77;;
8232;SDS011;4157;48.074;9.952;2024-03-08T12:10:28;28.60;;;20.30;;
8232;SDS011;4157;48.074;9.952;2024-03-08T12:12:58;27.58;;;21.13;;
8232;SDS011;4157;48.074;9.952;2024-03-08T12:15:26;23.65;;;20.15;;
8232;SDS011;4157;48.074;9.952;2024-03-08T12:17:55;26.23;;;20.35;;
8232;SDS011;4157;48.074;9.952;2024-03-08T12:20:24;28.02;;;20.95;;
8232;SDS011;4157;48.074;9.952;2024-03-08T12:22:52;25.63;;;19.13;;
8232;SDS011;4157;48.074;9.952;2024-03-08T12:25:22;25.40;;;20.52;;
8232;SDS011;4157;48.074;9.952;2024-03-08T12:27:50;27.15;;;20.20;;
8232;SDS011;4157;48.074;9.952;2024-03-08T12:30:21;25.73;;;19.85;;
8232;SDS011;4157;48.074;9.952;2024-03-08T12:32:50;21.67;;;17.83;;
8232;SDS011;4157;48.074;9.952;2024-03-08T12:35:19;22.33;;;18.58;;
8232;SDS011;4157;48.074;9.952;2024-03-08T12:37:48;21.90;;;18.73;;
8232;SDS011;4157;48.074;9.952;2024-03-08T12:40:17;21.10;;;18.40;;
8232;SDS011;4157;48.074;9.952;2024-03-08T12:42:44;20.10;;;16.95;;
8232;SDS011;4157;48.074;9.952;2024-03-08T12:45:13;22.50;;;18.45;;
8232;SDS011;4157;48.074;9.952;2024-03-08T12:47:42;21.58;;;17.45;;
8232;SDS011;4157;48.074;9.952;2024-03-08T12:50:10;20.67;;;17.75;;
8232;SDS011;4157;48.074;9.952;2024-03-08T12:52:38;21.45;;;16.40;;
8232;SDS011;4157;48.074;9.952;2024-03-08T12:55:06;20.27;;;15.90;;
8232;SDS011;4157;48.074;9.952;2024-03-08T12:57:34;20.15;;;15.82;;
8232;SDS011;4157;48.074;9.952;2024-03-08T13:00:03;18.88;;;15.00;;
8232;SDS011;4157;48.074;9.952;2024-03-08T13:02:38;16.48;;;14.20;;
8232;SDS011;4157;48.074;9.952;2024-03-08T13:05:09;18.52;;;14.93;;
8232;SDS011;4157;48.074;9.952;2024-03-08T13:07:37;18.35;;;14.90;;
8232;SDS011;4157;48.074;9.952;2024-03-08T13:10:05;17.50;;;14.38;;
8232;SDS011;4157;48.074;9.952;2024-03-08T13:12:34;19.15;;;15.25;;
8232;SDS011;4157;48.074;9.952;2024-03-08T13:15:03;18.38;;;15.13;;
8232;SDS011;4157;48.074;9.952;2024-03-08T13:17:32;19.90;;;15.02;;
8232;SDS011;4157;48.074;9.952;2024-03-08T13:19:59;18.73;;;14.32;;
8232;SDS011;4157;48.074;9.952;2024-03-08T13:22:32;16.67;;;14.02;;
8232;SDS011;4157;48.074;9.952;2024-03-08T13:24:59;17.63;;;13.90;;
8232;SDS011;4157;48.074;9.952;2024-03-08T13:27:27;17.38;;;13.40;;
8232;SDS011;4157;48.074;9.952;2024-03-08T13:29:55;15.85;;;13.60;;
8232;SDS011;4157;48.074;9.952;2024-03-08T13:32:22;16.55;;;13.48;;
8232;SDS011;4157;48.074;9.952;2024-03-08T13:34:50;14.85;;;12.95;;
8232;SDS011;4157;48.074;9.952;2024-03-08T13:37:19;15.93;;;12.98;;
8232;SDS011;4157;48.074;9.952;2024-03-08T13:39:48;15.82;;;12.45;;
8232;SDS011;4157;48.074;9.952;2024-03-08T13:42:16;16.92;;;12.20;;
8232;SDS011;4157;48.074;9.952;2024-03-08T13:44:45;15.70;;;13.00;;
8232;SDS011;4157;48.074;9.952;2024-03-08T13:47:13;17.08;;;13.68;;
8232;SDS011;4157;48.074;9.952;2024-03-08T13:49:40;15.43;;;13.50;;
8232;SDS011;4157;48.074;9.952;2024-03-08T13:52:09;16.35;;;12.88;;
8232;SDS011;4157;48.074;9.952;2024-03-08T13:54:38;16.00;;;12.45;;
8232;SDS011;4157;48.074;9.952;2024-03-08T13:57:08;19.88;;;12.95;;
8232;SDS011;4157;48.074;9.952;2024-03-08T13:59:35;16.70;;;13.82;;
8232;SDS011;4157;48.074;9.952;2024-03-08T14:02:04;14.02;;;12.45;;
8232;SDS011;4157;48.074;9.952;2024-03-08T14:04:31;15.35;;;13.27;;
8232;SDS011;4157;48.074;9.952;2024-03-08T14:07:00;14.75;;;12.32;;
8232;SDS011;4157;48.074;9.952;2024-03-08T14:09:29;15.05;;;12.65;;
8232;SDS011;4157;48.074;9.952;2024-03-08T14:11:57;14.23;;;12.23;;
8232;SDS011;4157;48.074;9.952;2024-03-08T14:14:26;14.02;;;11.70;;
8232;SDS011;4157;48.074;9.952;2024-03-08T14:16:54;15.77;;;12.55;;
8232;SDS011;4157;48.074;9.952;2024-03-08T14:19:23;14.25;;;12.73;;
8232;SDS011;4157;48.074;9.952;2024-03-08T14:21:51;13.88;;;12.30;;
8232;SDS011;4157;48.074;9.952;2024-03-08T14:24:19;16.50;;;13.02;;
8232;SDS011;4157;48.074;9.952;2024-03-08T14:26:47;16.85;;;13.38;;
8232;SDS011;4157;48.074;9.952;2024-03-08T14:29:15;17.20;;;13.85;;
8232;SDS011;4157;48.074;9.952;2024-03-08T14:31:45;14.68;;;12.63;;
8232;SDS011;4157;48.074;9.952;2024-03-08T14:34:12;15.75;;;12.52;;
8232;SDS011;4157;48.074;9.952;2024-03-08T14:36:40;15.85;;;13.15;;
8232;SDS011;4157;48.074;9.952;2024-03-08T14:39:08;15.98;;;13.10;;
8232;SDS011;4157;48.074;9.952;2024-03-08T14:41:36;16.63;;;14.38;;
8232;SDS011;4157;48.074;9.952;2024-03-08T14:44:04;15.88;;;12.27;;
8232;SDS011;4157;48.074;9.952;2024-03-08T14:46:32;15.25;;;13.27;;
8232;SDS011;4157;48.074;9.952;2024-03-08T14:49:02;16.77;;;14.32;;
8232;SDS011;4157;48.074;9.952;2024-03-08T14:51:29;16.75;;;13.90;;
8232;SDS011;4157;48.074;9.952;2024-03-08T14:53:58;18.38;;;14.30;;
8232;SDS011;4157;48.074;9.952;2024-03-08T14:56:26;18.13;;;14.48;;
8232;SDS011;4157;48.074;9.952;2024-03-08T14:58:54;18.60;;;14.77;;
8232;SDS011;4157;48.074;9.952;2024-03-08T15:01:24;24.73;;;21.63;;
8232;SDS011;4157;48.074;9.952;2024-03-08T15:03:54;19.08;;;15.55;;
8232;SDS011;4157;48.074;9.952;2024-03-08T15:06:28;20.05;;;15.75;;